Time;durP1;ratioP1;P1;durP2;ratioP2;P2;SDS_P1;SDS_P2;PMS_P1;PMS_P2;Temp;Humidity;BMP_temperature;BMP_pressure;BME280_temperature;BME280_humidity;BME280_pressure;Samples;Min_cycle;Max_cycle;Signal;HPM_P1;HPM_P2
2022/01/01 00:01:13;;;;;;;1.38;0.40;;;;;;;;;;5034645;28;20060;-66
2022/01/01 00:03:38;;;;;;;1.03;0.30;;;;;;;;;;5034588;28;20090;-65
2022/01/01 00:06:03;;;;;;;0.60;0.40;;;;;;;;;;5034358;28;20046;-65
2022/01/01 00:08:28;;;;;;;0.40;0.27;;;;;;;;;;5034522;28;20452;-66
2022/01/01 00:10:54;;;;;;;1.65;0.73;;;;;;;;;;5034338;28;20249;-66
2022/01/01 00:13:19;;;;;;;1.58;0.50;;;;;;;;;;5034385;28;20022;-66
2022/01/01 00:15:45;;;;;;;0.73;0.30;;;;;;;;;;5034454;28;20025;-66
2022/01/01 00:18:10;;;;;;;1.47;0.40;;;;;;;;;;5034440;28;20247;-66
2022/01/01 00:20:35;;;;;;;0.63;0.20;;;;;;;;;;5034346;28;20026;-66
2022/01/01 00:23:00;;;;;;;2.67;0.40;;;;;;;;;;5032825;28;20461;-66
2022/01/01 00:25:25;;;;;;;0.38;0.30;;;;;;;;;;5034161;28;20032;-65
2022/01/01 00:27:53;;;;;;;0.63;0.35;;;;;;;;;;5034076;28;20024;-65
2022/01/01 00:30:18;;;;;;;1.70;0.50;;;;;;;;;;5034120;28;20060;-65
2022/01/01 00:32:43;;;;;;;0.40;0.28;;;;;;;;;;5032702;28;20022;-65
2022/01/01 00:35:08;;;;;;;0.68;0.50;;;;;;;;;;5033947;28;20014;-65
2022/01/01 00:37:34;;;;;;;1.53;0.50;;;;;;;;;;5034058;28;20026;-65
2022/01/01 00:39:59;;;;;;;0.30;0.30;;;;;;;;;;5033824;28;20251;-65
2022/01/01 00:42:24;;;;;;;1.07;0.37;;;;;;;;;;5032692;28;20025;-65
2022/01/01 00:44:49;;;;;;;1.60;0.68;;;;;;;;;;5033628;28;20277;-65
2022/01/01 00:47:14;;;;;;;0.95;0.40;;;;;;;;;;5033678;28;20518;-65
2022/01/01 00:49:40;;;;;;;0.70;0.47;;;;;;;;;;5034073;28;20017;-66
2022/01/01 00:52:05;;;;;;;1.02;0.50;;;;;;;;;;5033663;28;20025;-66
2022/01/01 00:54:30;;;;;;;1.17;0.40;;;;;;;;;;5033700;28;20343;-65
2022/01/01 00:56:55;;;;;;;1.80;0.40;;;;;;;;;;5033505;28;20033;-65
2022/01/01 00:59:21;;;;;;;0.63;0.20;;;;;;;;;;5033521;28;20702;-66
2022/01/01 01:01:46;;;;;;;0.50;0.40;;;;;;;;;;5033508;28;20029;-66
2022/01/01 01:04:12;;;;;;;0.73;0.52;;;;;;;;;;5033278;28;20018;-66
2022/01/01 01:06:37;;;;;;;0.90;0.40;;;;;;;;;;5033347;28;20028;-65
2022/01/01 01:09:02;;;;;;;0.47;0.47;;;;;;;;;;5033191;28;20242;-65
2022/01/01 01:11:27;;;;;;;0.60;0.40;;;;;;;;;;5033410;28;20239;-66
2022/01/01 01:14:00;;;;;;;1.05;0.50;;;;;;;;;;5033146;28;20041;-66
2022/01/01 01:16:26;;;;;;;0.75;0.57;;;;;;;;;;5033300;28;20477;-66
2022/01/01 01:18:53;;;;;;;0.90;0.32;;;;;;;;;;5032901;28;20052;-66
2022/01/01 01:21:19;;;;;;;2.45;0.82;;;;;;;;;;5033153;28;20029;-66
2022/01/01 01:23:44;;;;;;;0.30;0.30;;;;;;;;;;5033011;28;20033;-66
2022/01/01 01:26:09;;;;;;;0.63;0.40;;;;;;;;;;5033287;28;20101;-66
2022/01/01 01:28:35;;;;;;;0.50;0.32;;;;;;;;;;5032937;28;20053;-66
2022/01/01 01:31:00;;;;;;;1.38;0.40;;;;;;;;;;5032926;28;20024;-66
2022/01/01 01:33:25;;;;;;;0.80;0.40;;;;;;;;;;5032990;28;20026;-65
2022/01/01 01:35:50;;;;;;;0.53;0.30;;;;;;;;;;5032748;28;20401;-65
2022/01/01 01:38:16;;;;;;;1.03;0.50;;;;;;;;;;5032939;28;20254;-65
2022/01/01 01:40:41;;;;;;;1.40;0.33;;;;;;;;;;5032704;28;20468;-65
2022/01/01 01:43:10;;;;;;;0.40;0.13;;;;;;;;;;5032671;28;20265;-66
2022/01/01 01:45:36;;;;;;;1.15;0.30;;;;;;;;;;5032769;28;20373;-66
2022/01/01 01:48:01;;;;;;;0.40;0.28;;;;;;;;;;5030655;28;20040;-66
2022/01/01 01:50:27;;;;;;;0.50;0.20;;;;;;;;;;5032745;28;20021;-66
2022/01/01 01:52:55;;;;;;;1.03;0.30;;;;;;;;;;5032475;28;20104;-66
2022/01/01 01:55:20;;;;;;;0.40;0.40;;;;;;;;;;5032618;28;20247;-65
2022/01/01 01:57:46;;;;;;;0.57;0.20;;;;;;;;;;5032519;28;20208;-65
2022/01/01 02:00:40;;;;;;;0.52;0.30;;;;;;;;;;5032525;28;20018;-65
2022/01/01 02:03:01;;;;;;;0.80;0.57;;;;;;;;;;5032192;28;20429;-66
2022/01/01 02:05:26;;;;;;;0.80;0.40;;;;;;;;;;5040488;22;20707;-66
2022/01/01 02:07:53;;;;;;;0.47;0.30;;;;;;;;;;5032460;28;20052;-65
2022/01/01 02:10:18;;;;;;;0.93;0.77;;;;;;;;;;5032393;28;20033;-65
2022/01/01 02:12:48;;;;;;;0.60;0.47;;;;;;;;;;5032225;28;20060;-65
2022/01/01 02:15:40;;;;;;;0.80;0.40;;;;;;;;;;5032305;28;20017;-65
2022/01/01 02:18:05;;;;;;;0.68;0.25;;;;;;;;;;5032243;28;20013;-66
2022/01/01 02:20:30;;;;;;;1.53;0.50;;;;;;;;;;5032270;28;20071;-66
2022/01/01 02:23:00;;;;;;;1.08;0.30;;;;;;;;;;5032155;28;20250;-65
2022/01/01 02:25:25;;;;;;;0.80;0.30;;;;;;;;;;5047530;28;20036;-65
2022/01/01 02:27:50;;;;;;;1.10;0.40;;;;;;;;;;5052106;28;20353;-66
2022/01/01 02:30:16;;;;;;;0.33;0.30;;;;;;;;;;5052220;28;20029;-65
2022/01/01 02:32:41;;;;;;;0.20;0.20;;;;;;;;;;5052000;28;20276;-66
2022/01/01 02:35:08;;;;;;;0.30;0.30;;;;;;;;;;5051913;28;20371;-66
2022/01/01 02:37:37;;;;;;;0.82;0.32;;;;;;;;;;5051942;28;20058;-66
2022/01/01 02:40:03;;;;;;;0.52;0.20;;;;;;;;;;5051874;28;20021;-66
2022/01/01 02:42:28;;;;;;;0.57;0.28;;;;;;;;;;5051852;28;20021;-66
2022/01/01 02:44:54;;;;;;;0.70;0.35;;;;;;;;;;5051691;28;20361;-65
2022/01/01 02:47:20;;;;;;;1.73;0.32;;;;;;;;;;5051710;28;20025;-66
2022/01/01 02:49:45;;;;;;;0.60;0.30;;;;;;;;;;5051782;28;20017;-66
2022/01/01 02:52:10;;;;;;;0.25;0.25;;;;;;;;;;5051831;28;20456;-66
2022/01/01 02:54:35;;;;;;;0.75;0.32;;;;;;;;;;5051809;28;20063;-66
2022/01/01 02:57:01;;;;;;;1.98;0.25;;;;;;;;;;5051708;28;20021;-64
2022/01/01 02:59:26;;;;;;;0.50;0.20;;;;;;;;;;5053834;28;20028;-65
2022/01/01 03:01:52;;;;;;;0.57;0.43;;;;;;;;;;5055617;28;20032;-65
2022/01/01 03:04:17;;;;;;;0.55;0.20;;;;;;;;;;5055611;28;20753;-65
2022/01/01 03:06:42;;;;;;;1.15;0.30;;;;;;;;;;5055426;28;20017;-66
2022/01/01 03:09:07;;;;;;;0.20;0.10;;;;;;;;;;5055490;28;20105;-65
2022/01/01 03:11:32;;;;;;;0.40;0.20;;;;;;;;;;5055645;28;20021;-65
2022/01/01 03:13:58;;;;;;;0.10;0.10;;;;;;;;;;5055696;28;20601;-67
2022/01/01 03:16:23;;;;;;;0.30;0.20;;;;;;;;;;5055514;28;20032;-66
2022/01/01 03:18:48;;;;;;;0.55;0.30;;;;;;;;;;5055191;28;20344;-66
2022/01/01 03:21:13;;;;;;;1.23;0.30;;;;;;;;;;5055277;28;20032;-65
2022/01/01 03:23:38;;;;;;;0.50;0.40;;;;;;;;;;5054710;28;20406;-66
2022/01/01 03:26:04;;;;;;;0.52;0.20;;;;;;;;;;5035220;28;20274;-65
2022/01/01 03:28:29;;;;;;;0.32;0.22;;;;;;;;;;5035327;28;20470;-65
2022/01/01 03:30:54;;;;;;;0.28;0.15;;;;;;;;;;5017433;28;20555;-66
2022/01/01 03:33:19;;;;;;;0.55;0.32;;;;;;;;;;5035202;28;20025;-66
2022/01/01 03:35:44;;;;;;;1.17;0.32;;;;;;;;;;5035148;28;20017;-66
2022/01/01 03:38:10;;;;;;;1.02;0.47;;;;;;;;;;5035164;28;20021;-67
2022/01/01 03:40:35;;;;;;;1.42;0.30;;;;;;;;;;5035121;28;20089;-66
2022/01/01 03:43:00;;;;;;;0.63;0.20;;;;;;;;;;5034912;28;20108;-66
2022/01/01 03:45:25;;;;;;;0.70;0.30;;;;;;;;;;5034981;28;20250;-66
2022/01/01 03:47:51;;;;;;;1.17;0.30;;;;;;;;;;5034930;28;20096;-66
2022/01/01 03:50:17;;;;;;;0.70;0.20;;;;;;;;;;5035011;28;20013;-66
2022/01/01 03:52:42;;;;;;;0.70;0.17;;;;;;;;;;5034826;28;20128;-66
2022/01/01 03:55:08;;;;;;;0.60;0.13;;;;;;;;;;5034941;28;20258;-66
2022/01/01 03:57:33;;;;;;;0.47;0.17;;;;;;;;;;5034870;28;20032;-67
2022/01/01 04:00:00;;;;;;;0.60;0.10;;;;;;;;;;5034616;28;20485;-66
2022/01/01 04:02:25;;;;;;;0.57;0.28;;;;;;;;;;5034731;28;20026;-66
2022/01/01 04:04:50;;;;;;;0.20;0.20;;;;;;;;;;5034135;28;20060;-66
2022/01/01 04:07:15;;;;;;;0.90;0.10;;;;;;;;;;5034471;28;20313;-66
2022/01/01 04:09:40;;;;;;;0.10;0.00;;;;;;;;;;5034535;28;20251;-66
2022/01/01 04:12:06;;;;;;;0.33;0.30;;;;;;;;;;5033725;28;20585;-66
2022/01/01 04:14:31;;;;;;;2.10;0.40;;;;;;;;;;5034405;28;20243;-66
2022/01/01 04:16:57;;;;;;;0.10;0.10;;;;;;;;;;5034329;28;20028;-66
2022/01/01 04:19:30;;;;;;;0.30;0.13;;;;;;;;;;5034358;28;20627;-66
2022/01/01 04:21:55;;;;;;;0.30;0.00;;;;;;;;;;5034184;28;20453;-66
2022/01/01 04:24:20;;;;;;;0.52;0.10;;;;;;;;;;5040718;28;20057;-65
2022/01/01 04:26:46;;;;;;;1.63;0.30;;;;;;;;;;5036087;28;20029;-66
2022/01/01 04:29:11;;;;;;;0.67;0.10;;;;;;;;;;5054004;28;20024;-66
2022/01/01 04:31:36;;;;;;;0.40;0.23;;;;;;;;;;5054194;28;20242;-66
2022/01/01 04:34:01;;;;;;;1.40;0.40;;;;;;;;;;5053934;28;20288;-66
2022/01/01 04:36:26;;;;;;;0.63;0.20;;;;;;;;;;5054022;28;20431;-66
2022/01/01 04:38:51;;;;;;;0.52;0.20;;;;;;;;;;5054012;28;20261;-66
2022/01/01 04:41:17;;;;;;;0.43;0.30;;;;;;;;;;5053909;28;20478;-66
2022/01/01 04:43:43;;;;;;;0.45;0.20;;;;;;;;;;5053892;28;20262;-66
2022/01/01 04:46:08;;;;;;;0.10;0.10;;;;;;;;;;5053915;28;20017;-66
2022/01/01 04:48:37;;;;;;;2.97;0.38;;;;;;;;;;5053773;28;20095;-65
2022/01/01 04:51:03;;;;;;;0.30;0.10;;;;;;;;;;5053878;28;20514;-66
2022/01/01 04:53:28;;;;;;;0.98;0.30;;;;;;;;;;5053712;28;20047;-66
2022/01/01 04:55:53;;;;;;;0.50;0.10;;;;;;;;;;5053504;28;20104;-65
2022/01/01 04:58:18;;;;;;;0.25;0.17;;;;;;;;;;5053640;28;20460;-66
2022/01/01 05:00:44;;;;;;;0.70;0.20;;;;;;;;;;5053377;28;20483;-66
2022/01/01 05:03:09;;;;;;;0.55;0.10;;;;;;;;;;5053613;28;20024;-66
2022/01/01 05:05:34;;;;;;;0.37;0.20;;;;;;;;;;5053294;28;20517;-66
2022/01/01 05:07:59;;;;;;;0.50;0.20;;;;;;;;;;5053225;28;20261;-66
2022/01/01 05:10:24;;;;;;;1.10;0.35;;;;;;;;;;5053643;28;20581;-65
2022/01/01 05:12:50;;;;;;;0.77;0.00;;;;;;;;;;5053058;28;20036;-65
2022/01/01 05:15:16;;;;;;;0.85;0.10;;;;;;;;;;5053237;28;20020;-65
2022/01/01 05:17:41;;;;;;;0.30;0.30;;;;;;;;;;5053479;28;20017;-65
2022/01/01 05:20:06;;;;;;;0.50;0.20;;;;;;;;;;5053116;28;20848;-65
2022/01/01 05:22:31;;;;;;;0.77;0.10;;;;;;;;;;5052053;28;20021;-65
2022/01/01 05:24:59;;;;;;;0.40;0.10;;;;;;;;;;5041482;28;20018;-65
2022/01/01 05:27:25;;;;;;;0.22;0.00;;;;;;;;;;5033069;28;20357;-65
2022/01/01 05:29:50;;;;;;;0.45;0.20;;;;;;;;;;5032920;28;20048;-65
2022/01/01 05:32:15;;;;;;;0.45;0.05;;;;;;;;;;5033056;28;20021;-65
2022/01/01 05:34:40;;;;;;;0.10;0.00;;;;;;;;;;5032859;28;20033;-65
2022/01/01 05:37:05;;;;;;;0.30;0.10;;;;;;;;;;5032826;28;20255;-66
2022/01/01 05:39:31;;;;;;;0.30;0.10;;;;;;;;;;5032948;28;20389;-64
2022/01/01 05:41:56;;;;;;;0.38;0.20;;;;;;;;;;5032757;28;20258;-65
2022/01/01 05:44:21;;;;;;;0.40;0.10;;;;;;;;;;5032867;28;20021;-65
2022/01/01 05:46:47;;;;;;;0.88;0.20;;;;;;;;;;5032785;28;20777;-65
2022/01/01 05:49:12;;;;;;;0.50;0.17;;;;;;;;;;5032707;28;20059;-65
2022/01/01 05:51:37;;;;;;;1.20;0.30;;;;;;;;;;5032734;28;20022;-65
2022/01/01 05:54:02;;;;;;;0.28;0.10;;;;;;;;;;5032579;28;20021;-65
2022/01/01 05:56:28;;;;;;;0.20;0.10;;;;;;;;;;5032624;28;20461;-65
2022/01/01 05:58:53;;;;;;;0.57;0.30;;;;;;;;;;5032973;28;20452;-66
2022/01/01 06:01:18;;;;;;;0.25;0.10;;;;;;;;;;5032523;28;20534;-65
2022/01/01 06:03:43;;;;;;;0.97;0.20;;;;;;;;;;5032286;28;20025;-65
2022/01/01 06:06:08;;;;;;;0.75;0.20;;;;;;;;;;5032358;28;20021;-65
2022/01/01 06:08:33;;;;;;;1.60;0.10;;;;;;;;;;5032682;28;20022;-65
2022/01/01 06:11:00;;;;;;;1.47;0.20;;;;;;;;;;5014523;28;20726;-65
2022/01/01 06:13:26;;;;;;;0.75;0.30;;;;;;;;;;5032393;28;20243;-65
2022/01/01 06:15:51;;;;;;;2.03;0.33;;;;;;;;;;5032294;28;20096;-65
2022/01/01 06:18:16;;;;;;;0.30;0.17;;;;;;;;;;5032376;28;20400;-65
2022/01/01 06:20:42;;;;;;;0.10;0.10;;;;;;;;;;5032205;28;20017;-66
2022/01/01 06:23:07;;;;;;;1.55;0.20;;;;;;;;;;5032429;28;20602;-65
2022/01/01 06:25:33;;;;;;;0.17;0.10;;;;;;;;;;5048468;28;20456;-65
2022/01/01 06:27:58;;;;;;;0.10;0.10;;;;;;;;;;5052047;28;20016;-65
2022/01/01 06:30:23;;;;;;;1.83;0.20;;;;;;;;;;5052192;28;20447;-66
2022/01/01 06:32:50;;;;;;;0.30;0.00;;;;;;;;;;5052209;28;20021;-66
2022/01/01 06:35:16;;;;;;;0.10;0.10;;;;;;;;;;5055658;28;20415;-66
2022/01/01 06:37:41;;;;;;;0.20;0.17;;;;;;;;;;5056590;28;20028;-66
2022/01/01 06:40:06;;;;;;;0.43;0.13;;;;;;;;;;5056427;28;20456;-65
2022/01/01 06:42:32;;;;;;;0.70;0.15;;;;;;;;;;5038238;28;20025;-65
2022/01/01 06:44:57;;;;;;;0.50;0.20;;;;;;;;;;5055909;28;20021;-65
2022/01/01 06:47:22;;;;;;;0.00;0.00;;;;;;;;;;5055992;28;20409;-65
2022/01/01 06:49:47;;;;;;;0.52;0.30;;;;;;;;;;5055955;28;20021;-65
2022/01/01 06:52:12;;;;;;;0.60;0.30;;;;;;;;;;5055951;28;20070;-66
2022/01/01 06:54:37;;;;;;;0.47;0.20;;;;;;;;;;5055879;28;20276;-66
2022/01/01 06:57:03;;;;;;;0.50;0.20;;;;;;;;;;5055968;28;20277;-65
2022/01/01 06:59:28;;;;;;;1.52;0.30;;;;;;;;;;5055813;28;20025;-65
2022/01/01 07:01:53;;;;;;;2.67;0.40;;;;;;;;;;5038104;28;20029;-65
2022/01/01 07:04:18;;;;;;;1.40;0.43;;;;;;;;;;5055607;28;20271;-65
2022/01/01 07:06:44;;;;;;;1.00;0.20;;;;;;;;;;5055751;28;20274;-65
2022/01/01 07:09:09;;;;;;;0.55;0.10;;;;;;;;;;5055500;28;20731;-64
2022/01/01 07:11:34;;;;;;;0.10;0.00;;;;;;;;;;5055632;28;20468;-64
2022/01/01 07:14:00;;;;;;;1.35;0.10;;;;;;;;;;5055463;28;20021;-66
2022/01/01 07:16:26;;;;;;;0.77;0.40;;;;;;;;;;5055617;28;20028;-65
2022/01/01 07:18:51;;;;;;;1.00;0.55;;;;;;;;;;5055218;28;20338;-65
2022/01/01 07:21:16;;;;;;;0.32;0.10;;;;;;;;;;5047844;28;20097;-66
2022/01/01 07:23:42;;;;;;;0.10;0.08;;;;;;;;;;5036487;28;20032;-65
2022/01/01 07:26:08;;;;;;;0.32;0.30;;;;;;;;;;5055489;28;20017;-66
2022/01/01 07:28:33;;;;;;;0.93;0.30;;;;;;;;;;5037448;28;20504;-66
2022/01/01 07:30:58;;;;;;;1.08;0.20;;;;;;;;;;5055118;28;20258;-65
2022/01/01 07:33:23;;;;;;;0.88;0.20;;;;;;;;;;5055178;28;20386;-65
2022/01/01 07:35:48;;;;;;;0.50;0.10;;;;;;;;;;5055025;28;20029;-65
2022/01/01 07:38:13;;;;;;;0.97;0.20;;;;;;;;;;5055100;28;20071;-65
2022/01/01 07:40:39;;;;;;;1.25;0.28;;;;;;;;;;5055005;28;20254;-65
2022/01/01 07:43:15;;;;;;;0.50;0.15;;;;;;;;;;5054851;28;20096;-65
2022/01/01 07:45:41;;;;;;;0.40;0.30;;;;;;;;;;5053736;28;20472;-65
2022/01/01 07:48:07;;;;;;;0.73;0.25;;;;;;;;;;5054897;28;20028;-65
2022/01/01 07:50:32;;;;;;;0.82;0.20;;;;;;;;;;5054878;28;20019;-65
2022/01/01 07:52:57;;;;;;;0.28;0.22;;;;;;;;;;5054713;28;20163;-66
2022/01/01 07:55:22;;;;;;;0.43;0.05;;;;;;;;;;5054741;28;20475;-66
2022/01/01 07:57:47;;;;;;;0.50;0.20;;;;;;;;;;5054946;28;20021;-65
2022/01/01 08:00:13;;;;;;;1.23;0.20;;;;;;;;;;5054756;28;20029;-65
2022/01/01 08:02:47;;;;;;;0.40;0.20;;;;;;;;;;5054901;28;20347;-65
2022/01/01 08:05:12;;;;;;;0.80;0.10;;;;;;;;;;5054439;28;20041;-66
2022/01/01 08:07:38;;;;;;;0.35;0.10;;;;;;;;;;5054472;28;20035;-65
2022/01/01 08:10:04;;;;;;;0.35;0.10;;;;;;;;;;5054420;28;20027;-65
2022/01/01 08:12:29;;;;;;;0.73;0.20;;;;;;;;;;5054485;28;20238;-65
2022/01/01 08:14:56;;;;;;;0.30;0.17;;;;;;;;;;5054556;28;20025;-65
2022/01/01 08:17:22;;;;;;;0.82;0.28;;;;;;;;;;5054291;28;20024;-65
2022/01/01 08:19:47;;;;;;;0.43;0.10;;;;;;;;;;5054224;28;20021;-64
2022/01/01 08:22:14;;;;;;;0.40;0.10;;;;;;;;;;5054305;28;20143;-65
2022/01/01 08:24:40;;;;;;;0.88;0.10;;;;;;;;;;5045086;28;20036;-65
2022/01/01 08:27:06;;;;;;;0.65;0.20;;;;;;;;;;5034077;28;20025;-65
2022/01/01 08:29:31;;;;;;;0.65;0.30;;;;;;;;;;5034330;28;20017;-65
2022/01/01 08:31:57;;;;;;;0.85;0.20;;;;;;;;;;5034365;28;20013;-66
2022/01/01 08:34:22;;;;;;;0.88;0.17;;;;;;;;;;5034137;28;20096;-65
2022/01/01 08:36:47;;;;;;;0.73;0.20;;;;;;;;;;5016147;28;20040;-65
2022/01/01 08:39:14;;;;;;;0.57;0.20;;;;;;;;;;5033952;28;20028;-65
2022/01/01 08:41:39;;;;;;;0.52;0.25;;;;;;;;;;5034581;28;20250;-65
2022/01/01 08:44:05;;;;;;;0.20;0.20;;;;;;;;;;5033811;28;20531;-66
2022/01/01 08:46:30;;;;;;;0.30;0.30;;;;;;;;;;5033776;28;20029;-65
2022/01/01 08:48:55;;;;;;;0.50;0.30;;;;;;;;;;5033693;28;20009;-65
2022/01/01 08:51:21;;;;;;;0.83;0.20;;;;;;;;;;5015994;28;20258;-65
2022/01/01 08:53:47;;;;;;;1.17;0.43;;;;;;;;;;5033675;28;20780;-65
2022/01/01 08:56:12;;;;;;;0.30;0.00;;;;;;;;;;5033760;28;20037;-65
2022/01/01 08:58:39;;;;;;;0.85;0.30;;;;;;;;;;5033610;28;20029;-65
2022/01/01 09:01:04;;;;;;;0.65;0.30;;;;;;;;;;5033820;28;20154;-65
2022/01/01 09:03:30;;;;;;;0.33;0.23;;;;;;;;;;5033901;28;20110;-66
2022/01/01 09:05:55;;;;;;;1.20;0.40;;;;;;;;;;5033164;28;20302;-67
2022/01/01 09:08:20;;;;;;;0.10;0.10;;;;;;;;;;5033533;28;20047;-66
2022/01/01 09:10:45;;;;;;;0.50;0.23;;;;;;;;;;5033376;28;20040;-66
2022/01/01 09:13:10;;;;;;;0.55;0.10;;;;;;;;;;5033351;28;20228;-66
2022/01/01 09:15:36;;;;;;;1.95;0.20;;;;;;;;;;5033468;28;20029;-66
2022/01/01 09:18:01;;;;;;;0.43;0.20;;;;;;;;;;5033198;28;20021;-66
2022/01/01 09:20:26;;;;;;;1.33;0.43;;;;;;;;;;5033298;28;20457;-66
2022/01/01 09:22:51;;;;;;;0.13;0.00;;;;;;;;;;5032966;28;20453;-65
2022/01/01 09:25:17;;;;;;;0.30;0.22;;;;;;;;;;5047260;28;20021;-65
2022/01/01 09:27:42;;;;;;;0.93;0.20;;;;;;;;;;5052991;28;20017;-65
2022/01/01 09:30:07;;;;;;;0.73;0.50;;;;;;;;;;5044488;28;20350;-66
2022/01/01 09:32:33;;;;;;;0.82;0.10;;;;;;;;;;5032891;28;20262;-66
2022/01/01 09:35:00;;;;;;;1.17;0.40;;;;;;;;;;5032871;28;20181;-66
2022/01/01 09:37:25;;;;;;;0.28;0.20;;;;;;;;;;5032972;28;20499;-66
2022/01/01 09:39:50;;;;;;;0.50;0.30;;;;;;;;;;5032776;28;20021;-67
2022/01/01 09:42:15;;;;;;;0.40;0.10;;;;;;;;;;5032915;28;20029;-66
2022/01/01 09:44:41;;;;;;;0.28;0.17;;;;;;;;;;5032752;28;20025;-66
2022/01/01 09:47:07;;;;;;;0.60;0.30;;;;;;;;;;5032606;28;20033;-65
2022/01/01 09:49:32;;;;;;;1.15;0.20;;;;;;;;;;5033016;28;20068;-65
2022/01/01 09:51:58;;;;;;;0.25;0.17;;;;;;;;;;5032665;28;20037;-65
2022/01/01 09:54:23;;;;;;;0.73;0.20;;;;;;;;;;5032665;28;20037;-66
2022/01/01 09:56:48;;;;;;;0.20;0.10;;;;;;;;;;5032483;28;20033;-66
2022/01/01 09:59:14;;;;;;;1.50;0.40;;;;;;;;;;5032471;28;20610;-66
2022/01/01 10:01:39;;;;;;;1.65;0.20;;;;;;;;;;5032582;28;20278;-65
2022/01/01 10:04:11;;;;;;;0.50;0.20;;;;;;;;;;5032242;28;20076;-65
2022/01/01 10:06:36;;;;;;;1.52;0.40;;;;;;;;;;5031785;28;20032;-65
2022/01/01 10:09:03;;;;;;;0.10;0.10;;;;;;;;;;5031729;28;20021;-66
2022/01/01 10:11:30;;;;;;;0.55;0.20;;;;;;;;;;5032450;28;20045;-66
2022/01/01 10:13:55;;;;;;;1.15;0.40;;;;;;;;;;5032357;28;20024;-66
2022/01/01 10:16:21;;;;;;;0.57;0.20;;;;;;;;;;5032423;28;20176;-66
2022/01/01 10:18:51;;;;;;;1.23;0.43;;;;;;;;;;5032272;28;20248;-67
2022/01/01 10:21:17;;;;;;;0.70;0.15;;;;;;;;;;5032288;28;20224;-66
2022/01/01 10:23:44;;;;;;;0.40;0.10;;;;;;;;;;5015616;28;20022;-66
2022/01/01 10:29:10;;;;;;;0.43;0.10;;;;;;;;;;5052592;28;20020;-65
2022/01/01 10:31:36;;;;;;;0.93;0.30;;;;;;;;;;5052181;28;20123;-65
2022/01/01 10:34:01;;;;;;;0.10;0.10;;;;;;;;;;5034092;28;20487;-66
2022/01/01 10:36:28;;;;;;;0.20;0.10;;;;;;;;;;5052152;28;20021;-66
2022/01/01 10:38:54;;;;;;;0.30;0.10;;;;;;;;;;5051844;28;20021;-66
2022/01/01 10:41:19;;;;;;;1.40;0.20;;;;;;;;;;5052019;28;20072;-66
2022/01/01 10:43:45;;;;;;;0.30;0.17;;;;;;;;;;5034091;28;20151;-65
2022/01/01 10:46:15;;;;;;;0.45;0.20;;;;;;;;;;5051895;28;20281;-66
2022/01/01 10:48:54;;;;;;;1.10;0.30;;;;;;;;;;5051899;28;20021;-66
2022/01/01 10:51:19;;;;;;;0.10;0.00;;;;;;;;;;5051887;28;20116;-66
2022/01/01 10:53:44;;;;;;;0.70;0.20;;;;;;;;;;5051902;28;20121;-66
2022/01/01 10:56:17;;;;;;;1.30;0.35;;;;;;;;;;5051909;28;20198;-66
2022/01/01 10:58:42;;;;;;;0.45;0.20;;;;;;;;;;5051716;28;20404;-66
2022/01/01 11:01:08;;;;;;;0.50;0.40;;;;;;;;;;5051760;28;20091;-66
2022/01/01 11:03:38;;;;;;;2.13;0.20;;;;;;;;;;5034053;28;20032;-66
2022/01/01 11:06:03;;;;;;;0.75;0.30;;;;;;;;;;5051930;28;20033;-66
2022/01/01 11:08:28;;;;;;;0.32;0.15;;;;;;;;;;5051763;28;20027;-66
2022/01/01 11:10:54;;;;;;;0.60;0.20;;;;;;;;;;5051571;28;20105;-65
2022/01/01 11:13:19;;;;;;;0.10;0.10;;;;;;;;;;5051679;28;20033;-66
2022/01/01 11:15:44;;;;;;;0.63;0.20;;;;;;;;;;5051722;28;20021;-66
2022/01/01 11:18:10;;;;;;;0.80;0.20;;;;;;;;;;5051751;28;20314;-66
2022/01/01 11:20:36;;;;;;;0.60;0.10;;;;;;;;;;5053823;28;20024;-65
2022/01/01 11:23:05;;;;;;;1.77;0.60;;;;;;;;;;5055299;28;20093;-66
2022/01/01 11:25:31;;;;;;;0.95;0.30;;;;;;;;;;5039424;28;20388;-65
2022/01/01 11:27:56;;;;;;;0.40;0.30;;;;;;;;;;5035256;28;20029;-66
2022/01/01 11:30:25;;;;;;;1.65;0.30;;;;;;;;;;5035365;28;20017;-66
2022/01/01 11:32:53;;;;;;;0.82;0.40;;;;;;;;;;5035066;28;20080;-65
2022/01/01 11:35:23;;;;;;;1.38;0.20;;;;;;;;;;5035275;28;20045;-65
2022/01/01 11:37:57;;;;;;;0.03;0.03;;;;;;;;;;5035122;28;20021;-66
2022/01/01 11:40:23;;;;;;;0.47;0.22;;;;;;;;;;5035227;28;20029;-66
2022/01/01 11:42:48;;;;;;;0.43;0.20;;;;;;;;;;5034929;28;20033;-66
2022/01/01 11:45:32;;;;;;;0.28;0.10;;;;;;;;;;5035031;28;20398;-65
2022/01/01 11:48:36;;;;;;;0.77;0.10;;;;;;;;;;5034875;28;20079;-65
2022/01/01 11:51:20;;;;;;;1.35;0.22;;;;;;;;;;4938108;29;20019;-66
2022/01/01 11:54:04;;;;;;;1.08;0.15;;;;;;;;;;4954432;29;20065;-66
2022/01/01 11:56:49;;;;;;;0.97;0.10;;;;;;;;;;4938369;29;20410;-66
2022/01/01 11:59:17;;;;;;;0.88;0.20;;;;;;;;;;4878383;29;20044;-66
2022/01/01 12:01:43;;;;;;;1.60;0.30;;;;;;;;;;4878502;29;20543;-67
2022/01/01 12:04:21;;;;;;;1.45;0.17;;;;;;;;;;4878160;29;20049;-66
2022/01/01 12:06:46;;;;;;;0.10;0.10;;;;;;;;;;4878249;29;20029;-65
2022/01/01 12:09:11;;;;;;;0.43;0.10;;;;;;;;;;4878275;29;20045;-66
2022/01/01 12:11:36;;;;;;;0.65;0.20;;;;;;;;;;4878452;29;20444;-66
2022/01/01 12:14:02;;;;;;;0.90;0.20;;;;;;;;;;4878259;29;20017;-65
2022/01/01 12:16:28;;;;;;;0.30;0.20;;;;;;;;;;4878258;29;20060;-65
2022/01/01 12:19:00;;;;;;;0.55;0.20;;;;;;;;;;4878096;29;20032;-66
2022/01/01 12:21:27;;;;;;;0.30;0.10;;;;;;;;;;4897798;29;20134;-66
2022/01/01 12:23:57;;;;;;;0.50;0.20;;;;;;;;;;4937055;29;20206;-66
2022/01/01 12:26:30;;;;;;;0.57;0.10;;;;;;;;;;4953891;29;20023;-66
2022/01/01 12:29:00;;;;;;;0.75;0.30;;;;;;;;;;4953648;29;20346;-66
2022/01/01 12:31:25;;;;;;;0.70;0.20;;;;;;;;;;4953176;28;20035;-66
2022/01/01 12:33:52;;;;;;;0.63;0.20;;;;;;;;;;4953602;29;20015;-66
2022/01/01 12:36:18;;;;;;;0.50;0.08;;;;;;;;;;4982555;28;20394;-66
2022/01/01 12:38:47;;;;;;;0.95;0.15;;;;;;;;;;5014185;28;20029;-66
2022/01/01 12:41:14;;;;;;;0.50;0.30;;;;;;;;;;5014199;28;20117;-66
2022/01/01 12:43:46;;;;;;;0.20;0.10;;;;;;;;;;5012982;28;20564;-66
2022/01/01 12:46:13;;;;;;;0.60;0.20;;;;;;;;;;5013959;28;20477;-66
2022/01/01 12:48:38;;;;;;;0.20;0.10;;;;;;;;;;5012843;28;20026;-66
2022/01/01 12:51:05;;;;;;;0.45;0.10;;;;;;;;;;5013926;28;20022;-66
2022/01/01 12:53:30;;;;;;;0.38;0.10;;;;;;;;;;5014058;28;20180;-65
2022/01/01 12:55:58;;;;;;;0.30;0.10;;;;;;;;;;5013972;28;20100;-65
2022/01/01 12:58:23;;;;;;;1.58;0.50;;;;;;;;;;5013950;28;20049;-65
2022/01/01 13:00:49;;;;;;;0.75;0.30;;;;;;;;;;5013762;28;20465;-66
2022/01/01 13:03:14;;;;;;;0.45;0.20;;;;;;;;;;5013855;28;20030;-66
2022/01/01 13:05:39;;;;;;;0.65;0.38;;;;;;;;;;5047701;28;20107;-65
2022/01/01 13:08:05;;;;;;;0.60;0.10;;;;;;;;;;5053353;28;20013;-66
2022/01/01 13:10:31;;;;;;;0.50;0.20;;;;;;;;;;5053390;28;20094;-66
2022/01/01 13:12:56;;;;;;;0.55;0.20;;;;;;;;;;5053179;28;20060;-65
2022/01/01 13:15:22;;;;;;;0.85;0.40;;;;;;;;;;5053297;28;20358;-65
2022/01/01 13:17:49;;;;;;;0.17;0.13;;;;;;;;;;5053183;28;20025;-65
2022/01/01 13:20:14;;;;;;;0.40;0.20;;;;;;;;;;5053268;28;20116;-65
2022/01/01 13:22:40;;;;;;;1.00;0.30;;;;;;;;;;5053346;28;20511;-66
2022/01/01 13:25:05;;;;;;;1.48;0.10;;;;;;;;;;5040484;28;20025;-66
2022/01/01 13:27:32;;;;;;;0.35;0.10;;;;;;;;;;5033183;28;20033;-66
2022/01/01 13:29:58;;;;;;;0.30;0.20;;;;;;;;;;5015228;28;20024;-65
2022/01/01 13:32:23;;;;;;;0.68;0.20;;;;;;;;;;5015713;28;20021;-66
2022/01/01 13:34:49;;;;;;;0.40;0.20;;;;;;;;;;5032823;28;20433;-66
2022/01/01 13:37:20;;;;;;;0.65;0.30;;;;;;;;;;5033264;28;20017;-66
2022/01/01 13:39:46;;;;;;;0.85;0.40;;;;;;;;;;5032896;28;20381;-66
2022/01/01 13:42:15;;;;;;;0.73;0.33;;;;;;;;;;5032872;28;20021;-66
2022/01/01 13:44:42;;;;;;;0.52;0.20;;;;;;;;;;5032005;28;20255;-66
2022/01/01 13:47:13;;;;;;;0.38;0.15;;;;;;;;;;5032607;28;20095;-66
2022/01/01 13:49:50;;;;;;;1.48;0.13;;;;;;;;;;5032894;28;20041;-66
2022/01/01 13:52:19;;;;;;;0.30;0.00;;;;;;;;;;5032773;28;20009;-66
2022/01/01 13:54:44;;;;;;;0.30;0.20;;;;;;;;;;5032666;28;20185;-66
2022/01/01 13:57:10;;;;;;;1.95;0.20;;;;;;;;;;5033161;28;20021;-66
2022/01/01 13:59:36;;;;;;;0.65;0.20;;;;;;;;;;5032693;28;20465;-66
2022/01/01 14:02:05;;;;;;;0.70;0.20;;;;;;;;;;5032400;28;20097;-66
2022/01/01 14:04:34;;;;;;;0.75;0.28;;;;;;;;;;5032338;28;20061;-66
2022/01/01 14:07:08;;;;;;;0.65;0.20;;;;;;;;;;5032553;28;20057;-66
2022/01/01 14:09:33;;;;;;;1.25;0.28;;;;;;;;;;5032557;28;20501;-66
2022/01/01 14:11:58;;;;;;;1.48;0.10;;;;;;;;;;5032597;28;20025;-65
2022/01/01 14:14:28;;;;;;;0.87;0.10;;;;;;;;;;5032471;28;20381;-65
2022/01/01 14:16:53;;;;;;;1.10;0.30;;;;;;;;;;5032190;28;20295;-66
2022/01/01 14:19:19;;;;;;;0.50;0.10;;;;;;;;;;5032360;28;20022;-65
2022/01/01 14:21:46;;;;;;;0.80;0.20;;;;;;;;;;5032307;28;20333;-66
2022/01/01 14:24:12;;;;;;;0.47;0.17;;;;;;;;;;5032786;28;20038;-66
2022/01/01 14:26:41;;;;;;;0.50;0.20;;;;;;;;;;5032229;28;20025;-66
2022/01/01 14:29:07;;;;;;;1.42;0.32;;;;;;;;;;5032165;28;20067;-66
2022/01/01 14:31:33;;;;;;;0.37;0.10;;;;;;;;;;5032330;28;20022;-66
2022/01/01 14:34:00;;;;;;;0.50;0.32;;;;;;;;;;5032058;28;20297;-65
2022/01/01 14:36:25;;;;;;;0.60;0.17;;;;;;;;;;5032191;28;20476;-65
2022/01/01 14:38:51;;;;;;;0.20;0.20;;;;;;;;;;5014252;28;20076;-66
2022/01/01 14:41:18;;;;;;;0.75;0.20;;;;;;;;;;5032162;28;20026;-66